Aviation Digital Data Service (ADDS)

Output produced by METARs form (0826 UTC 17 November 2018)
found at http://www.aviationweather.gov/metar/data/
 
KFAR 170531Z 1706/1806 35013G20KT P6SM SCT030 
     FM171200 32008KT P6SM FEW030 
     FM171900 29007KT P6SM SKC 
     FM172200 26008KT P6SM SKC 
     FM180100 23007KT P6SM SKC
       
KFAT 170538Z 1706/1806 VRB03KT 4SM HZ SCT200
       
KFAY 170523Z 1706/1806 24005KT P6SM SKC 
     FM171300 VRB04KT P6SM SKC
       
TAF KFBG 170200Z 1702/1808 VRB06KT 9999 SKC QNH3008INS TX17/1720Z TN01/1702Z
       
TAF AMD KFCS 1708/1811 02012G18KT 9999 BKN120 QNH2996INS 
     TEMPO 1708/1710 02015G25KT 
     BECMG 1711/1712 06009KT 9999 BKN015 620159 QNH3008INS 
     BECMG 1713/1714 12009KT 3200 -DZ BR BKN007 650075 QNH3009INS 
     TEMPO 1714/1718 0800 FZDZ 690002 
     BECMG 1717/1718 15009KT 1600 -SN BR BKN007 650079 QNH3010INS 
     BECMG 1802/1803 12009KT 0800 SN BKN005 650059 QNH3015INS 
     BECMG 1806/1807 12009KT 2400 -SHSN BR BKN007 640079 QNH3018INS TX07/1719Z
TNM03/1709Z
       
KFDY 170808Z 1708/1806 25008KT P6SM OVC035 
     FM171400 23006KT P6SM OVC025 
     FM172200 32005KT P6SM OVC020 
     FM180400 01004KT P6SM OVC015
       
TAF KFFO 170300Z 1703/1809 VRB06KT 9999 OVC015 QNH3012INS 
     BECMG 1710/1711 VRB06KT 9999 BKN008 OVC015 QNH3023INS 
     BECMG 1715/1716 VRB06KT 9999 OVC015 QNH3023INS 
     BECMG 1800/1801 VRB06KT 9999 OVC010 QNH3025INS TX03/1718Z TN02/1712Z
       
TAF KFHU 170200Z 1702/1808 VRB06KT 9999 FEW100 QNH3009INS 
     BECMG 1717/1718 19009KT 9999 SCT220 QNH3010INS 
     BECMG 1803/1804 VRB06KT 9999 FEW200 QNH3016INS TX19/1721Z TN00/1712Z LAST
NO AMDS AFT 1706 NEXT 1902
       
KFKL 170540Z 1706/1806 24010KT 4SM BR OVC004 
     FM171200 24007KT 4SM BR OVC008 
     FM171800 25007KT 6SM BR OVC008 
     FM180000 VRB03KT 4SM BR OVC007 
     TEMPO 1802/1805 -SN OVC007
       
KFLG 170526Z 1706/1806 00000KT P6SM BKN200 
     FM171800 23010KT P6SM SCT200
       
KFLL 170524Z 1706/1812 34008KT P6SM BKN050 
     FM171500 04010KT P6SM SCT030 
     FM180100 04006KT P6SM SCT030
       
KFLO 170520Z 1706/1806 00000KT P6SM SKC 
     FM171500 05005KT P6SM SKC 
     FM172300 00000KT P6SM SKC
       
KFMH 170520Z 1706/1806 26013KT P6SM FEW040 
     FM171500 28012G24KT P6SM FEW045 
     FM172200 27010KT P6SM FEW200
       
KFMN 170530Z 1706/1806 VRB06KT P6SM BKN200 
     FM170800 09006KT P6SM SCT200 
     FM172000 27008KT P6SM SCT200 
     FM180200 VRB06KT P6SM SCT200
       
KFMY 170535Z 1706/1806 02005KT P6SM SKC 
     FM171400 04008KT P6SM SKC 
     FM180000 03005KT P6SM SKC
       
KFNT 170529Z 1706/1806 27009KT P6SM OVC028 
     FM171600 27008KT P6SM -SN OVC025 
     FM171900 30007KT P6SM -SN OVC030 
     FM172200 33006KT P6SM OVC035 
     FM180200 35005KT P6SM BKN035 OVC045
       
KFOD 170536Z 1706/1806 05011KT 2SM -SN BR SCT005 OVC011 
     TEMPO 1706/1709 1SM -SN BR OVC005 
     FM171000 02011G17KT 6SM -SN BR OVC015 
     FM171200 02015G23KT P6SM OVC025 
     FM171500 01013G21KT P6SM BKN045 
     FM180100 35008KT P6SM BKN200
       
KFOE 170630Z 1707/1806 00000KT P6SM SCT250 
     FM171400 35012KT P6SM BKN040 
     FM171600 01015G23KT P6SM OVC018 
     FM180000 02014KT 6SM -FZDZ BR SCT006 OVC010
       
KFPR 170532Z 1706/1806 33005KT P6SM FEW025 
     FM171600 04010KT P6SM FEW030 
     FM172300 02005KT P6SM FEW030
       
TAF KFRI 170000Z 1700/1806 18009KT 9999 SKC QNH2992INS 
     BECMG 1703/1704 21009KT 9999 FEW150 QNH2996INS 
     BECMG 1709/1710 34012KT 9999 FEW150 QNH3000INS 
     BECMG 1711/1712 01015G25KT 9999 BKN010 OVC015 QNH3004INS 
     BECMG 1717/1718 02015G25KT 9999 OVC015 QNH3018INS 
     BECMG 1722/1723 02010G15KT 8000 -SHSN OVC015 QNH3024INS TX12/1700Z
TN00/1712Z LAST NO AMDS AFT 1700 NEXT 1900
       
KFSD 170520Z 1706/1806 02017G24KT 5SM -FZDZSN OVC012 
     FM170800 01016G24KT P6SM OVC020 
     FM171000 01016G23KT P6SM OVC060 
     FM171900 36010KT P6SM SCT110
       
TAF KFSI 162200Z 1622/1804 18009KT 9999 SCT250 QNH2998INS 
     BECMG 1717/1718 34006KT 9999 FEW030 BKN200 QNH3005INS 
     BECMG 1720/1721 01012G18KT 9999 BKN025 520104 QNH3007INS TX19/1622Z
TN00/1711Z LAST NO AMDS AFT 1700 NEXT 1914
       
KFSM 170520Z 1706/1806 00000KT P6SM SCT250 
     FM171600 15006KT P6SM SCT250 
     FM180100 21005KT P6SM SCT250
       
KFST 170522Z 1706/1806 20011KT P6SM FEW250 
     FM172100 31010KT P6SM FEW250 
     FM180200 08008KT P6SM SCT250
       
TAF AMD KFTK 170805Z 1708/1807 VRB06KT 0400 FZFG SCT015 QNH3015INS 
     BECMG 1709/1711 VRB06KT 4800 BR SCT015 QNH3015INS 
     BECMG 1714/1715 VRB06KT 9999 NSW SKC QNH3020INS 
     BECMG 1800/1801 VRB06KT 9999 SCT020 QNH3021INS TX08/1721Z TNM03/1711Z
       
KFTW 170534Z 1706/1806 18011KT P6SM SCT300 
     FM172300 16010KT P6SM BKN060
       
KFTY 170737Z 1708/1806 00000KT P6SM FEW250 
     TEMPO 1708/1710 3/4SM BR VV002 
     FM171600 27004KT P6SM SKC 
     FM180000 00000KT P6SM SCT250
       
KFVE 170815Z 1708/1806 31003KT 6SM -SN SCT018 OVC050 
     FM171000 29004KT P6SM OVC020 
     FM171100 26005KT P6SM BKN035 
     FM172300 28007KT P6SM -SHSN BKN030
       
KFWA 170520Z 1706/1806 25006KT P6SM OVC020 
     FM170800 VRB03KT P6SM OVC015 
     FM171500 VRB03KT P6SM OVC020 
     FM172200 04006KT P6SM OVC025
       
KFXE 170524Z 1706/1806 34008KT P6SM BKN050 
     FM171500 04010KT P6SM SCT030 
     FM180100 04006KT P6SM SCT030
       
KFYV 170520Z 1706/1806 18003KT P6SM SCT250 
     FM171700 22007KT P6SM SCT250 
     FM180100 VRB03KT P6SM FEW250